sensor_id;sensor_type;location;lat;lon;timestamp;pressure;altitude;pressure_sealevel;temperature;humidity
77639;BME280;66802;52.574;14.398;2024-01-30T00:01:05;103058.03;;;2.58;73.09
77639;BME280;66802;52.574;14.398;2024-01-30T00:03:30;103056.88;;;2.66;72.86
77639;BME280;66802;52.574;14.398;2024-01-30T00:05:56;103052.38;;;2.68;72.34
77639;BME280;66802;52.574;14.398;2024-01-30T00:08:24;103055.88;;;2.70;72.95
77639;BME280;66802;52.574;14.398;2024-01-30T00:10:49;103060.25;;;2.71;73.01
77639;BME280;66802;52.574;14.398;2024-01-30T00:13:14;103061.28;;;2.67;73.13
77639;BME280;66802;52.574;14.398;2024-01-30T00:15:42;103055.16;;;2.64;73.47
77639;BME280;66802;52.574;14.398;2024-01-30T00:18:08;103071.50;;;2.51;74.23
77639;BME280;66802;52.574;14.398;2024-01-30T00:20:36;103067.81;;;2.57;73.60
77639;BME280;66802;52.574;14.398;2024-01-30T00:23:01;103068.97;;;2.48;73.61
77639;BME280;66802;52.574;14.398;2024-01-30T00:25:27;103064.47;;;2.49;73.56
77639;BME280;66802;52.574;14.398;2024-01-30T00:27:54;103057.34;;;2.49;73.76
77639;BME280;66802;52.574;14.398;2024-01-30T00:30:21;103058.16;;;2.53;73.42
77639;BME280;66802;52.574;14.398;2024-01-30T00:32:46;103053.56;;;2.58;73.52
77639;BME280;66802;52.574;14.398;2024-01-30T00:35:14;103048.22;;;2.58;73.89
77639;BME280;66802;52.574;14.398;2024-01-30T00:37:40;103061.44;;;2.61;73.52
77639;BME280;66802;52.574;14.398;2024-01-30T00:40:05;103061.88;;;2.47;73.65
77639;BME280;66802;52.574;14.398;2024-01-30T00:42:31;103058.53;;;2.39;74.28
77639;BME280;66802;52.574;14.398;2024-01-30T00:44:57;103063.06;;;2.37;74.38
77639;BME280;66802;52.574;14.398;2024-01-30T00:47:23;103058.69;;;2.35;74.71
77639;BME280;66802;52.574;14.398;2024-01-30T00:49:48;103051.31;;;2.44;74.54
77639;BME280;66802;52.574;14.398;2024-01-30T00:52:15;103058.63;;;2.38;74.82
77639;BME280;66802;52.574;14.398;2024-01-30T00:54:41;103057.63;;;2.40;75.08
77639;BME280;66802;52.574;14.398;2024-01-30T00:57:07;103056.16;;;2.30;74.95
77639;BME280;66802;52.574;14.398;2024-01-30T00:59:40;103057.97;;;2.28;75.73
77639;BME280;66802;52.574;14.398;2024-01-30T04:02:11;103002.19;;;1.93;80.39
77639;BME280;66802;52.574;14.398;2024-01-30T04:04:47;102997.84;;;1.89;80.65
77639;BME280;66802;52.574;14.398;2024-01-30T04:07:13;103000.63;;;1.84;80.78
77639;BME280;66802;52.574;14.398;2024-01-30T04:09:40;103000.63;;;1.84;81.18
77639;BME280;66802;52.574;14.398;2024-01-30T04:12:06;103000.72;;;1.82;81.19
77639;BME280;66802;52.574;14.398;2024-01-30T04:14:43;103001.59;;;1.83;80.60
77639;BME280;66802;52.574;14.398;2024-01-30T04:17:19;103000.56;;;1.87;81.02
77639;BME280;66802;52.574;14.398;2024-01-30T04:19:56;102991.03;;;1.78;81.11
77639;BME280;66802;52.574;14.398;2024-01-30T04:22:21;103006.50;;;1.97;80.33
77639;BME280;66802;52.574;14.398;2024-01-30T04:24:47;103003.84;;;1.97;80.50
77639;BME280;66802;52.574;14.398;2024-01-30T04:27:15;103007.47;;;1.94;80.46
77639;BME280;66802;52.574;14.398;2024-01-30T04:29:40;103001.59;;;1.83;80.65
77639;BME280;66802;52.574;14.398;2024-01-30T04:32:06;103003.28;;;1.84;80.93
77639;BME280;66802;52.574;14.398;2024-01-30T04:34:31;103010.53;;;1.80;81.08
77639;BME280;66802;52.574;14.398;2024-01-30T04:36:57;103019.34;;;1.82;81.60
77639;BME280;66802;52.574;14.398;2024-01-30T04:39:22;103000.03;;;1.74;80.53
77639;BME280;66802;52.574;14.398;2024-01-30T04:41:48;103006.25;;;1.73;81.42
77639;BME280;66802;52.574;14.398;2024-01-30T04:44:16;103005.34;;;1.74;80.95
77639;BME280;66802;52.574;14.398;2024-01-30T04:46:44;102996.28;;;1.81;80.87
77639;BME280;66802;52.574;14.398;2024-01-30T04:49:14;102993.47;;;1.86;80.78
77639;BME280;66802;52.574;14.398;2024-01-30T04:51:52;103003.22;;;1.87;81.03
77639;BME280;66802;52.574;14.398;2024-01-30T04:54:24;103001.50;;;1.84;81.43
77639;BME280;66802;52.574;14.398;2024-01-30T04:56:52;102999.97;;;1.76;81.19
77639;BME280;66802;52.574;14.398;2024-01-30T04:59:50;103003.47;;;1.78;81.24
77639;BME280;66802;52.574;14.398;2024-01-30T05:02:20;103007.06;;;1.77;81.39
77639;BME280;66802;52.574;14.398;2024-01-30T05:05:19;102996.47;;;1.74;81.37
77639;BME280;66802;52.574;14.398;2024-01-30T05:07:47;103006.31;;;1.72;81.47
77639;BME280;66802;52.574;14.398;2024-01-30T05:10:25;103010.59;;;1.77;81.40
77639;BME280;66802;52.574;14.398;2024-01-30T05:13:27;103007.19;;;1.72;81.58
77639;BME280;66802;52.574;14.398;2024-01-30T05:16:05;102999.25;;;1.71;81.18
77639;BME280;66802;52.574;14.398;2024-01-30T05:18:40;103007.97;;;1.76;81.03
77639;BME280;66802;52.574;14.398;2024-01-30T05:21:08;103006.25;;;1.73;81.02
77639;BME280;66802;52.574;14.398;2024-01-30T05:23:38;103000.91;;;1.75;81.54
77639;BME280;66802;52.574;14.398;2024-01-30T05:26:07;103001.69;;;1.78;81.39
77639;BME280;66802;52.574;14.398;2024-01-30T05:28:36;103008.19;;;1.68;81.26
77639;BME280;66802;52.574;14.398;2024-01-30T05:31:09;102992.94;;;1.73;81.07
77639;BME280;66802;52.574;14.398;2024-01-30T05:33:44;103002.81;;;1.70;82.11
77639;BME280;66802;52.574;14.398;2024-01-30T05:36:15;103001.72;;;1.77;80.99
77639;BME280;66802;52.574;14.398;2024-01-30T05:38:41;103005.34;;;1.74;81.66
77639;BME280;66802;52.574;14.398;2024-01-30T05:41:27;103003.59;;;1.73;81.79
77639;BME280;66802;52.574;14.398;2024-01-30T05:43:53;103001.03;;;1.70;82.05
77639;BME280;66802;52.574;14.398;2024-01-30T05:46:18;103002.81;;;1.70;81.77
77639;BME280;66802;52.574;14.398;2024-01-30T05:48:46;102989.38;;;1.74;81.52
77639;BME280;66802;52.574;14.398;2024-01-30T05:51:14;103003.88;;;1.63;81.91
77639;BME280;66802;52.574;14.398;2024-01-30T05:53:39;103008.22;;;1.67;81.79
77639;BME280;66802;52.574;14.398;2024-01-30T05:56:07;103008.41;;;1.61;82.18
77639;BME280;66802;52.574;14.398;2024-01-30T05:58:46;103013.72;;;1.61;82.21
77639;BME280;66802;52.574;14.398;2024-01-30T06:01:33;103005.63;;;1.64;82.44
77639;BME280;66802;52.574;14.398;2024-01-30T06:07:16;103006.06;;;1.81;81.21
77639;BME280;66802;52.574;14.398;2024-01-30T06:10:04;103014.13;;;1.78;80.75
77639;BME280;66802;52.574;14.398;2024-01-30T06:12:58;103010.75;;;1.73;80.99
77639;BME280;66802;52.574;14.398;2024-01-30T06:15:34;103015.88;;;1.79;81.39
77639;BME280;66802;52.574;14.398;2024-01-30T06:18:00;103014.16;;;1.76;81.89
77639;BME280;66802;52.574;14.398;2024-01-30T06:20:31;103008.88;;;1.75;81.55
77639;BME280;66802;52.574;14.398;2024-01-30T06:23:27;103012.53;;;1.72;82.21
77639;BME280;66802;52.574;14.398;2024-01-30T06:25:55;103009.03;;;1.70;81.74
77639;BME280;66802;52.574;14.398;2024-01-30T06:28:21;103014.44;;;1.67;81.99
77639;BME280;66802;52.574;14.398;2024-01-30T06:30:57;103009.09;;;1.67;82.12
77639;BME280;66802;52.574;14.398;2024-01-30T06:33:33;103005.31;;;1.76;81.81
77639;BME280;66802;52.574;14.398;2024-01-30T06:35:58;103002.34;;;1.87;81.24
77639;BME280;66802;52.574;14.398;2024-01-30T06:38:29;102993.78;;;1.75;81.67
77639;BME280;66802;52.574;14.398;2024-01-30T06:40:57;103007.28;;;1.69;82.44
77639;BME280;66802;52.574;14.398;2024-01-30T06:43:33;103009.69;;;1.78;81.82
77639;BME280;66802;52.574;14.398;2024-01-30T06:46:01;103008.69;;;1.82;81.59
77639;BME280;66802;52.574;14.398;2024-01-30T06:48:36;102996.34;;;1.80;81.79
77639;BME280;66802;52.574;14.398;2024-01-30T06:51:11;102996.44;;;1.75;81.62
77639;BME280;66802;52.574;14.398;2024-01-30T06:53:37;102995.38;;;1.82;81.49
77639;BME280;66802;52.574;14.398;2024-01-30T06:56:03;103007.06;;;1.77;81.54
77639;BME280;66802;52.574;14.398;2024-01-30T06:58:29;102992.94;;;1.73;81.67
77639;BME280;66802;52.574;14.398;2024-01-30T07:00:57;102999.25;;;1.71;81.83
77639;BME280;66802;52.574;14.398;2024-01-30T07:03:25;102997.75;;;1.61;81.90
77639;BME280;66802;52.574;14.398;2024-01-30T07:05:50;102987.34;;;1.52;83.06
77639;BME280;66802;52.574;14.398;2024-01-30T07:08:19;102990.75;;;1.57;82.66
77639;BME280;66802;52.574;14.398;2024-01-30T07:10:44;102993.53;;;1.52;83.25
77639;BME280;66802;52.574;14.398;2024-01-30T07:13:11;102998.53;;;1.64;82.83
77639;BME280;66802;52.574;14.398;2024-01-30T07:15:38;102995.47;;;1.79;82.34
77639;BME280;66802;52.574;14.398;2024-01-30T07:18:04;102986.53;;;1.82;81.43
77639;BME280;66802;52.574;14.398;2024-01-30T07:20:30;102992.72;;;1.82;82.22
77639;BME280;66802;52.574;14.398;2024-01-30T07:22:58;102996.75;;;1.96;81.58
77639;BME280;66802;52.574;14.398;2024-01-30T07:25:23;102992.50;;;1.90;82.06
77639;BME280;66802;52.574;14.398;2024-01-30T07:27:52;102991.59;;;1.91;81.99
77639;BME280;66802;52.574;14.398;2024-01-30T07:30:18;102981.16;;;1.83;82.15
77639;BME280;66802;52.574;14.398;2024-01-30T07:32:49;102984.50;;;1.90;82.48
77639;BME280;66802;52.574;14.398;2024-01-30T07:35:14;102985.19;;;1.97;82.13
77639;BME280;66802;52.574;14.398;2024-01-30T07:37:40;102986.25;;;1.91;82.55
77639;BME280;66802;52.574;14.398;2024-01-30T07:40:15;102995.81;;;1.98;81.87
77639;BME280;66802;52.574;14.398;2024-01-30T07:42:41;102990.47;;;1.98;82.34
77639;BME280;66802;52.574;14.398;2024-01-30T07:45:11;102994.53;;;2.11;81.25
77639;BME280;66802;52.574;14.398;2024-01-30T07:47:37;102988.06;;;2.20;81.07
77639;BME280;66802;52.574;14.398;2024-01-30T07:50:02;102997.88;;;2.18;81.29
77639;BME280;66802;52.574;14.398;2024-01-30T07:52:28;102987.97;;;2.23;80.78
77639;BME280;66802;52.574;14.398;2024-01-30T07:54:54;102987.03;;;2.26;80.86
77639;BME280;66802;52.574;14.398;2024-01-30T07:57:20;102989.53;;;2.30;80.87
77639;BME280;66802;52.574;14.398;2024-01-30T07:59:46;102985.06;;;2.31;80.86
77639;BME280;66802;52.574;14.398;2024-01-30T08:02:12;102989.25;;;2.39;80.66
77639;BME280;66802;52.574;14.398;2024-01-30T08:04:38;102991.91;;;2.39;80.54
77639;BME280;66802;52.574;14.398;2024-01-30T08:07:03;102989.25;;;2.39;81.22
77639;BME280;66802;52.574;14.398;2024-01-30T08:09:31;102990.03;;;2.43;80.78
77639;BME280;66802;52.574;14.398;2024-01-30T08:11:57;102992.63;;;2.46;80.79
77639;BME280;66802;52.574;14.398;2024-01-30T08:14:22;102984.50;;;2.49;80.30
77639;BME280;66802;52.574;14.398;2024-01-30T08:16:48;102990.50;;;2.57;80.14
77639;BME280;66802;52.574;14.398;2024-01-30T08:19:14;102979.97;;;2.52;79.93
77639;BME280;66802;52.574;14.398;2024-01-30T08:21:43;102984.97;;;2.63;80.18
77639;BME280;66802;52.574;14.398;2024-01-30T08:24:09;102971.53;;;2.66;79.48
77639;BME280;66802;52.574;14.398;2024-01-30T08:26:34;102979.25;;;2.75;79.69
77639;BME280;66802;52.574;14.398;2024-01-30T08:29:01;102974.91;;;2.71;79.45
77639;BME280;66802;52.574;14.398;2024-01-30T08:31:29;102968.31;;;2.83;79.52
77639;BME280;66802;52.574;14.398;2024-01-30T08:33:54;102978.81;;;2.89;79.19
77639;BME280;66802;52.574;14.398;2024-01-30T08:36:20;102973.06;;;3.01;77.91
77639;BME280;66802;52.574;14.398;2024-01-30T08:38:45;102980.72;;;3.12;78.17
77639;BME280;66802;52.574;14.398;2024-01-30T08:41:11;102981.88;;;3.03;79.16
77639;BME280;66802;52.574;14.398;2024-01-30T08:43:36;102973.88;;;3.03;78.27
77639;BME280;66802;52.574;14.398;2024-01-30T08:46:02;102970.50;;;2.98;78.65
77639;BME280;66802;52.574;14.398;2024-01-30T08:48:28;102966.44;;;3.13;78.44
77639;BME280;66802;52.574;14.398;2024-01-30T08:50:54;102971.56;;;3.19;78.31
77639;BME280;66802;52.574;14.398;2024-01-30T08:53:22;102974.25;;;3.19;78.37
77639;BME280;66802;52.574;14.398;2024-01-30T08:55:49;102964.16;;;3.27;77.59
77639;BME280;66802;52.574;14.398;2024-01-30T08:58:15;102964.28;;;3.24;77.70
77639;BME280;66802;52.574;14.398;2024-01-30T09:00:43;102979.22;;;3.29;77.40
77639;BME280;66802;52.574;14.398;2024-01-30T09:03:19;102969.41;;;3.30;78.32
77639;BME280;66802;52.574;14.398;2024-01-30T09:05:44;102958.09;;;3.23;78.43
77639;BME280;66802;52.574;14.398;2024-01-30T09:08:10;102962.22;;;3.32;77.70
77639;BME280;66802;52.574;14.398;2024-01-30T09:10:35;102958.94;;;3.49;77.96
77639;BME280;66802;52.574;14.398;2024-01-30T09:13:01;102955.25;;;3.53;77.82
77639;BME280;66802;52.574;14.398;2024-01-30T09:15:26;102950.78;;;3.53;78.07
77639;BME280;66802;52.574;14.398;2024-01-30T09:17:52;102952.31;;;3.60;78.05
77639;BME280;66802;52.574;14.398;2024-01-30T09:20:17;102960.91;;;3.68;77.10
77639;BME280;66802;52.574;14.398;2024-01-30T09:22:43;102955.88;;;3.84;77.39
77639;BME280;66802;52.574;14.398;2024-01-30T09:25:08;102951.63;;;3.79;77.11
77639;BME280;66802;52.574;14.398;2024-01-30T09:27:34;102951.47;;;3.83;76.64
77639;BME280;66802;52.574;14.398;2024-01-30T09:29:59;102951.16;;;3.91;75.84
77639;BME280;66802;52.574;14.398;2024-01-30T09:32:25;102951.53;;;4.05;75.73
77639;BME280;66802;52.574;14.398;2024-01-30T09:34:50;102943.09;;;4.16;74.56
77639;BME280;66802;52.574;14.398;2024-01-30T09:37:16;102945.16;;;4.09;74.84
77639;BME280;66802;52.574;14.398;2024-01-30T09:39:43;102943.69;;;4.00;75.81
77639;BME280;66802;52.574;14.398;2024-01-30T09:42:21;102950.84;;;4.00;76.39
77639;BME280;66802;52.574;14.398;2024-01-30T09:44:53;102941.66;;;4.07;76.08
77639;BME280;66802;52.574;14.398;2024-01-30T09:47:18;102950.97;;;4.20;75.60
77639;BME280;66802;52.574;14.398;2024-01-30T09:49:44;102955.28;;;4.23;75.40
77639;BME280;66802;52.574;14.398;2024-01-30T09:52:11;102949.72;;;4.29;75.79
77639;BME280;66802;52.574;14.398;2024-01-30T09:54:38;102952.81;;;4.42;74.93
77639;BME280;66802;52.574;14.398;2024-01-30T09:57:04;102955.22;;;4.48;73.70
77639;BME280;66802;52.574;14.398;2024-01-30T09:59:30;102949.38;;;4.60;73.81
77639;BME280;66802;52.574;14.398;2024-01-30T10:01:56;102935.41;;;4.75;74.18
77639;BME280;66802;52.574;14.398;2024-01-30T10:04:22;102932.47;;;4.81;74.03
77639;BME280;66802;52.574;14.398;2024-01-30T10:06:47;102926.38;;;4.98;73.85
77639;BME280;66802;52.574;14.398;2024-01-30T10:09:13;102931.47;;;5.26;71.92
77639;BME280;66802;52.574;14.398;2024-01-30T10:11:39;102934.31;;;5.41;71.69
77639;BME280;66802;52.574;14.398;2024-01-30T10:14:04;102933.00;;;5.52;70.59
77639;BME280;66802;52.574;14.398;2024-01-30T10:16:34;102946.03;;;5.79;70.45
77639;BME280;66802;52.574;14.398;2024-01-30T10:19:00;102936.75;;;5.86;69.90
77639;BME280;66802;52.574;14.398;2024-01-30T10:21:25;102930.59;;;6.05;68.49
77639;BME280;66802;52.574;14.398;2024-01-30T10:23:53;102932.03;;;6.12;68.87
77639;BME280;66802;52.574;14.398;2024-01-30T10:26:19;102934.97;;;6.26;68.99
77639;BME280;66802;52.574;14.398;2024-01-30T10:28:52;102923.47;;;6.41;69.58
77639;BME280;66802;52.574;14.398;2024-01-30T10:31:35;102920.22;;;6.53;68.27
77639;BME280;66802;52.574;14.398;2024-01-30T10:34:01;102907.13;;;6.65;68.14
77639;BME280;66802;52.574;14.398;2024-01-30T10:36:28;102925.31;;;6.77;68.31
77639;BME280;66802;52.574;14.398;2024-01-30T10:38:59;102910.03;;;6.96;66.09
77639;BME280;66802;52.574;14.398;2024-01-30T10:41:31;102910.34;;;7.07;66.23
77639;BME280;66802;52.574;14.398;2024-01-30T10:44:10;102899.03;;;7.18;66.74
77639;BME280;66802;52.574;14.398;2024-01-30T10:46:38;102901.97;;;7.30;65.78
77639;BME280;66802;52.574;14.398;2024-01-30T10:49:04;102898.00;;;7.38;64.72
77639;BME280;66802;52.574;14.398;2024-01-30T10:51:32;102892.31;;;7.44;64.79
77639;BME280;66802;52.574;14.398;2024-01-30T10:53:58;102906.22;;;7.52;64.02
77639;BME280;66802;52.574;14.398;2024-01-30T10:56:24;102894.97;;;7.61;64.33
77639;BME280;66802;52.574;14.398;2024-01-30T10:58:52;102883.72;;;7.70;63.21
77639;BME280;66802;52.574;14.398;2024-01-30T11:01:22;102889.00;;;7.72;63.37
77639;BME280;66802;52.574;14.398;2024-01-30T11:03:50;102880.22;;;7.68;63.09
77639;BME280;66802;52.574;14.398;2024-01-30T11:06:16;102873.91;;;7.69;64.15
77639;BME280;66802;52.574;14.398;2024-01-30T11:08:44;102877.84;;;7.79;63.39
77639;BME280;66802;52.574;14.398;2024-01-30T11:11:10;102874.03;;;7.83;62.96
77639;BME280;66802;52.574;14.398;2024-01-30T11:13:36;102883.06;;;7.82;63.30
77639;BME280;66802;52.574;14.398;2024-01-30T11:16:06;102869.69;;;7.81;63.13
77639;BME280;66802;52.574;14.398;2024-01-30T11:18:35;102862.50;;;7.81;62.58
77639;BME280;66802;52.574;14.398;2024-01-30T11:21:00;102858.19;;;7.79;63.66
77639;BME280;66802;52.574;14.398;2024-01-30T11:23:30;102871.69;;;7.77;63.62
77639;BME280;66802;52.574;14.398;2024-01-30T11:25:56;102876.81;;;7.82;63.43
77639;BME280;66802;52.574;14.398;2024-01-30T11:28:23;102871.34;;;7.83;62.95
77639;BME280;66802;52.574;14.398;2024-01-30T11:30:48;102877.34;;;7.88;62.69
77639;BME280;66802;52.574;14.398;2024-01-30T11:33:28;102873.09;;;7.84;61.78
77639;BME280;66802;52.574;14.398;2024-01-30T11:35:57;102866.25;;;7.79;62.17
77639;BME280;66802;52.574;14.398;2024-01-30T11:38:26;102855.88;;;7.71;61.32
77639;BME280;66802;52.574;14.398;2024-01-30T11:40:54;102857.03;;;7.67;62.33
77639;BME280;66802;52.574;14.398;2024-01-30T11:43:19;102858.06;;;7.64;62.68
77639;BME280;66802;52.574;14.398;2024-01-30T11:45:45;102861.69;;;7.63;63.88
77639;BME280;66802;52.574;14.398;2024-01-30T11:48:12;102857.25;;;7.62;63.01
77639;BME280;66802;52.574;14.398;2024-01-30T11:50:39;102858.13;;;7.63;63.80
77639;BME280;66802;52.574;14.398;2024-01-30T11:53:06;102856.31;;;7.63;63.28
77639;BME280;66802;52.574;14.398;2024-01-30T11:55:32;102852.84;;;7.61;63.04
77639;BME280;66802;52.574;14.398;2024-01-30T11:57:58;102866.03;;;7.66;63.58
77639;BME280;66802;52.574;14.398;2024-01-30T12:00:24;102854.56;;;7.62;64.70
77639;BME280;66802;52.574;14.398;2024-01-30T12:02:52;102862.13;;;7.72;64.72
77639;BME280;66802;52.574;14.398;2024-01-30T12:05:21;102852.88;;;7.77;64.12
77639;BME280;66802;52.574;14.398;2024-01-30T12:07:47;102853.13;;;7.73;64.76
77639;BME280;66802;52.574;14.398;2024-01-30T12:10:13;102858.84;;;7.82;63.95
77639;BME280;66802;52.574;14.398;2024-01-30T12:12:41;102858.69;;;7.85;64.89
77639;BME280;66802;52.574;14.398;2024-01-30T12:15:08;102851.72;;;7.81;63.05
77639;BME280;66802;52.574;14.398;2024-01-30T12:17:34;102838.91;;;7.86;64.27
77639;BME280;66802;52.574;14.398;2024-01-30T12:20:06;102847.78;;;7.88;64.14
77639;BME280;66802;52.574;14.398;2024-01-30T12:22:37;102851.72;;;7.81;63.51
77639;BME280;66802;52.574;14.398;2024-01-30T12:25:10;102847.50;;;7.77;63.91
77639;BME280;66802;52.574;14.398;2024-01-30T12:27:37;102843.75;;;7.80;63.41
77639;BME280;66802;52.574;14.398;2024-01-30T12:30:09;102847.31;;;7.80;64.24
77639;BME280;66802;52.574;14.398;2024-01-30T12:32:38;102850.09;;;7.79;63.14
77639;BME280;66802;52.574;14.398;2024-01-30T12:35:07;102842.81;;;7.81;63.67
77639;BME280;66802;52.574;14.398;2024-01-30T12:37:43;102844.28;;;7.86;63.26
77639;BME280;66802;52.574;14.398;2024-01-30T12:40:10;102848.97;;;7.83;63.86
77639;BME280;66802;52.574;14.398;2024-01-30T12:42:37;102842.28;;;7.90;63.58
77639;BME280;66802;52.574;14.398;2024-01-30T12:45:03;102835.88;;;7.92;63.12
77639;BME280;66802;52.574;14.398;2024-01-30T12:47:30;102833.81;;;7.97;64.62
77639;BME280;66802;52.574;14.398;2024-01-30T12:49:56;102828.59;;;7.94;64.92
77639;BME280;66802;52.574;14.398;2024-01-30T12:52:22;102825.91;;;7.94;63.50
77639;BME280;66802;52.574;14.398;2024-01-30T12:54:51;102825.91;;;7.94;64.82
77639;BME280;66802;52.574;14.398;2024-01-30T12:57:17;102818.28;;;7.87;64.84
77639;BME280;66802;52.574;14.398;2024-01-30T12:59:44;102818.94;;;7.90;63.98
77639;BME280;66802;52.574;14.398;2024-01-30T13:02:11;102822.28;;;7.95;64.30
77639;BME280;66802;52.574;14.398;2024-01-30T13:04:37;102815.94;;;7.96;63.78
77639;BME280;66802;52.574;14.398;2024-01-30T13:07:03;102808.97;;;7.92;63.96
77639;BME280;66802;52.574;14.398;2024-01-30T13:09:30;102807.53;;;7.87;63.04
77639;BME280;66802;52.574;14.398;2024-01-30T13:11:56;102806.22;;;7.94;64.12
77639;BME280;66802;52.574;14.398;2024-01-30T13:14:22;102814.13;;;7.97;63.40
77639;BME280;66802;52.574;14.398;2024-01-30T13:16:47;102811.75;;;7.91;63.84
77639;BME280;66802;52.574;14.398;2024-01-30T13:19:13;102799.19;;;7.91;64.05
77639;BME280;66802;52.574;14.398;2024-01-30T13:21:38;102796.50;;;7.91;62.81
77639;BME280;66802;52.574;14.398;2024-01-30T13:24:04;102803.81;;;7.89;64.11
77639;BME280;66802;52.574;14.398;2024-01-30T13:26:32;102792.41;;;7.84;63.22
77639;BME280;66802;52.574;14.398;2024-01-30T13:28:58;102791.47;;;7.85;65.03
77639;BME280;66802;52.574;14.398;2024-01-30T13:31:23;102789.38;;;7.90;65.24
77639;BME280;66802;52.574;14.398;2024-01-30T13:33:49;102777.31;;;7.82;65.00
77639;BME280;66802;52.574;14.398;2024-01-30T13:36:14;102776.03;;;7.73;64.63
77639;BME280;66802;52.574;14.398;2024-01-30T13:38:40;102783.47;;;7.84;64.38
77639;BME280;66802;52.574;14.398;2024-01-30T13:41:05;102782.44;;;7.86;63.78
77639;BME280;66802;52.574;14.398;2024-01-30T13:43:31;102772.66;;;7.85;64.35
77639;BME280;66802;52.574;14.398;2024-01-30T13:45:56;102775.88;;;7.76;64.35
77639;BME280;66802;52.574;14.398;2024-01-30T13:48:22;102773.97;;;7.78;64.33
77639;BME280;66802;52.574;14.398;2024-01-30T13:50:48;102771.94;;;7.82;64.52
77639;BME280;66802;52.574;14.398;2024-01-30T13:53:13;102771.44;;;7.75;64.30
77639;BME280;66802;52.574;14.398;2024-01-30T13:55:39;102772.38;;;7.74;64.45
77639;BME280;66802;52.574;14.398;2024-01-30T13:58:06;102783.31;;;7.71;65.17
77639;BME280;66802;52.574;14.398;2024-01-30T14:00:32;102767.41;;;7.51;66.08
77639;BME280;66802;52.574;14.398;2024-01-30T14:02:57;102778.69;;;7.57;65.69
77639;BME280;66802;52.574;14.398;2024-01-30T14:05:24;102777.75;;;7.58;66.23
77639;BME280;66802;52.574;14.398;2024-01-30T14:07:51;102777.22;;;7.52;65.96
77639;BME280;66802;52.574;14.398;2024-01-30T14:10:17;102776.59;;;7.47;66.02
77639;BME280;66802;52.574;14.398;2024-01-30T14:12:43;102771.41;;;7.44;66.46
77639;BME280;66802;52.574;14.398;2024-01-30T14:15:09;102778.75;;;7.40;66.99
77639;BME280;66802;52.574;14.398;2024-01-30T14:17:35;102768.97;;;7.39;66.20
77639;BME280;66802;52.574;14.398;2024-01-30T14:20:05;102770.94;;;7.36;66.74
77639;BME280;66802;52.574;14.398;2024-01-30T14:22:31;102756.66;;;7.35;66.70
77639;BME280;66802;52.574;14.398;2024-01-30T14:24:58;102755.59;;;7.38;66.87
77639;BME280;66802;52.574;14.398;2024-01-30T14:27:23;102751.38;;;7.33;66.65
77639;BME280;66802;52.574;14.398;2024-01-30T14:29:48;102751.97;;;7.39;66.06
77639;BME280;66802;52.574;14.398;2024-01-30T14:32:14;102737.50;;;7.41;65.72
77639;BME280;66802;52.574;14.398;2024-01-30T14:34:39;102743.13;;;7.37;65.49
77639;BME280;66802;52.574;14.398;2024-01-30T14:37:05;102753.00;;;7.36;66.27
77639;BME280;66802;52.574;14.398;2024-01-30T14:39:30;102751.38;;;7.33;66.42
77639;BME280;66802;52.574;14.398;2024-01-30T14:41:57;102751.16;;;7.21;67.10
77639;BME280;66802;52.574;14.398;2024-01-30T14:44:22;102741.78;;;7.12;67.25
77639;BME280;66802;52.574;14.398;2024-01-30T14:46:48;102751.31;;;7.18;68.11
77639;BME280;66802;52.574;14.398;2024-01-30T14:49:14;102739.88;;;7.14;68.61
77639;BME280;66802;52.574;14.398;2024-01-30T14:51:41;102751.91;;;7.07;68.87
77639;BME280;66802;52.574;14.398;2024-01-30T14:54:06;102752.25;;;7.01;69.33
77639;BME280;66802;52.574;14.398;2024-01-30T14:56:32;102760.88;;;6.90;70.18
77639;BME280;66802;52.574;14.398;2024-01-30T14:58:58;102751.66;;;6.79;70.64
77639;BME280;66802;52.574;14.398;2024-01-30T15:01:24;102763.47;;;6.75;70.48
77639;BME280;66802;52.574;14.398;2024-01-30T15:03:49;102758.44;;;6.69;70.91
77639;BME280;66802;52.574;14.398;2024-01-30T15:06:17;102754.97;;;6.67;70.80
77639;BME280;66802;52.574;14.398;2024-01-30T15:08:43;102762.94;;;6.68;70.44
77639;BME280;66802;52.574;14.398;2024-01-30T15:11:08;102765.84;;;6.64;70.96
77639;BME280;66802;52.574;14.398;2024-01-30T15:13:34;102764.03;;;6.64;71.01
77639;BME280;66802;52.574;14.398;2024-01-30T15:15:59;102757.19;;;6.58;71.30
77639;BME280;66802;52.574;14.398;2024-01-30T15:18:27;102750.56;;;6.48;71.11
77639;BME280;66802;52.574;14.398;2024-01-30T15:20:53;102758.97;;;6.41;71.37
77639;BME280;66802;52.574;14.398;2024-01-30T15:23:18;102751.66;;;6.44;71.47
77639;BME280;66802;52.574;14.398;2024-01-30T15:25:43;102754.09;;;6.49;70.96
77639;BME280;66802;52.574;14.398;2024-01-30T15:28:09;102749.50;;;6.34;71.37
77639;BME280;66802;52.574;14.398;2024-01-30T15:30:35;102760.63;;;6.26;71.59
77639;BME280;66802;52.574;14.398;2024-01-30T15:33:01;102757.63;;;6.32;71.75
77639;BME280;66802;52.574;14.398;2024-01-30T15:35:27;102760.63;;;6.26;71.36
77639;BME280;66802;52.574;14.398;2024-01-30T15:37:52;102756.03;;;6.28;71.66
77639;BME280;66802;52.574;14.398;2024-01-30T15:40:18;102752.66;;;6.25;71.38
77639;BME280;66802;52.574;14.398;2024-01-30T15:42:43;102755.28;;;6.26;71.22
77639;BME280;66802;52.574;14.398;2024-01-30T15:45:09;102766.28;;;6.20;71.31
77639;BME280;66802;52.574;14.398;2024-01-30T15:47:35;102759.38;;;6.16;71.00
77639;BME280;66802;52.574;14.398;2024-01-30T15:50:02;102775.34;;;6.17;70.96
77639;BME280;66802;52.574;14.398;2024-01-30T15:52:27;102761.59;;;6.06;71.09
77639;BME280;66802;52.574;14.398;2024-01-30T15:54:53;102767.59;;;5.94;71.20
77639;BME280;66802;52.574;14.398;2024-01-30T15:57:18;102753.22;;;5.95;71.35